Time;durP1;ratioP1;P1;durP2;ratioP2;P2;SDS_P1;SDS_P2;PMS_P1;PMS_P2;Temp;Humidity;BMP_temperature;BMP_pressure;BME280_temperature;BME280_humidity;BME280_pressure;Samples;Min_cycle;Max_cycle;Signal;HPM_P1;HPM_P2
2023/09/09 00:00:29;;;;;;;4.55;1.50;;;;;;;;;;5076746;28;20028;-69
2023/09/09 00:02:55;;;;;;;6.88;1.55;;;;;;;;;;5077019;28;20039;-66
2023/09/09 00:05:21;;;;;;;6.93;1.50;;;;;;;;;;5059878;28;20040;-66
2023/09/09 00:07:47;;;;;;;5.75;1.38;;;;;;;;;;5093275;28;20093;-67
2023/09/09 00:10:12;;;;;;;3.92;1.40;;;;;;;;;;5076099;28;20128;-66
2023/09/09 00:12:38;;;;;;;3.83;1.70;;;;;;;;;;5076483;28;20480;-66
2023/09/09 00:15:05;;;;;;;5.47;1.52;;;;;;;;;;5059833;28;20459;-67
2023/09/09 00:17:31;;;;;;;5.60;1.95;;;;;;;;;;5060045;28;20036;-66
2023/09/09 00:19:58;;;;;;;3.35;1.60;;;;;;;;;;5035936;28;20072;-67
2023/09/09 00:22:24;;;;;;;6.32;2.05;;;;;;;;;;5002611;28;20060;-66
2023/09/09 00:24:50;;;;;;;4.22;1.55;;;;;;;;;;5002403;28;20041;-67
2023/09/09 00:27:15;;;;;;;3.40;1.50;;;;;;;;;;5002626;28;20083;-67
2023/09/09 00:29:41;;;;;;;5.45;2.08;;;;;;;;;;5019124;28;20114;-66
2023/09/09 00:32:07;;;;;;;5.13;1.60;;;;;;;;;;5018974;28;20360;-66
2023/09/09 00:34:34;;;;;;;3.70;1.88;;;;;;;;;;5020956;28;20148;-67
2023/09/09 00:36:59;;;;;;;4.70;1.77;;;;;;;;;;5055750;28;20094;-67
2023/09/09 00:39:25;;;;;;;4.95;1.60;;;;;;;;;;5055149;28;20044;-66
2023/09/09 00:41:52;;;;;;;4.88;1.48;;;;;;;;;;5055108;28;20198;-66
2023/09/09 00:44:18;;;;;;;3.55;1.70;;;;;;;;;;5055707;28;20105;-66
2023/09/09 00:46:43;;;;;;;2.53;1.55;;;;;;;;;;5055501;28;20048;-66
2023/09/09 00:49:09;;;;;;;3.58;1.58;;;;;;;;;;5056038;28;20059;-67
2023/09/09 00:51:37;;;;;;;6.30;1.50;;;;;;;;;;5068232;28;20047;-66
2023/09/09 00:54:03;;;;;;;3.83;1.45;;;;;;;;;;5059620;28;20032;-67
2023/09/09 00:56:32;;;;;;;6.75;1.67;;;;;;;;;;5075941;28;20032;-66
2023/09/09 00:58:58;;;;;;;3.22;1.30;;;;;;;;;;5076901;28;20093;-66
2023/09/09 01:01:24;;;;;;;3.42;1.52;;;;;;;;;;5077538;28;20040;-66
2023/09/09 01:03:53;;;;;;;6.22;1.48;;;;;;;;;;5076196;28;20386;-67
2023/09/09 01:06:21;;;;;;;7.22;2.10;;;;;;;;;;5077718;28;20032;-66
2023/09/09 01:08:47;;;;;;;3.85;1.40;;;;;;;;;;5094301;28;20466;-66
2023/09/09 01:11:14;;;;;;;3.92;1.60;;;;;;;;;;5076714;28;20374;-66
2023/09/09 01:13:40;;;;;;;3.72;1.70;;;;;;;;;;5075388;28;20036;-67
2023/09/09 01:16:07;;;;;;;7.38;1.67;;;;;;;;;;5076545;28;20036;-66
2023/09/09 01:18:34;;;;;;;4.18;1.58;;;;;;;;;;5055543;28;20048;-70
2023/09/09 01:21:10;;;;;;;4.60;1.60;;;;;;;;;;5021314;28;20078;-66
2023/09/09 01:23:36;;;;;;;3.35;1.40;;;;;;;;;;5038478;28;20052;-65
2023/09/09 01:26:02;;;;;;;4.25;1.33;;;;;;;;;;5039136;28;20497;-65
2023/09/09 01:28:27;;;;;;;4.13;1.70;;;;;;;;;;5039026;28;20083;-66
2023/09/09 01:31:03;;;;;;;3.70;1.58;;;;;;;;;;5056289;28;20043;-66
2023/09/09 01:33:43;;;;;;;2.85;1.30;;;;;;;;;;5055390;28;20079;-65
2023/09/09 01:36:11;;;;;;;2.90;1.27;;;;;;;;;;5053444;28;20089;-66
2023/09/09 01:38:37;;;;;;;6.35;1.70;;;;;;;;;;5037457;28;20040;-65
2023/09/09 01:41:03;;;;;;;6.28;1.58;;;;;;;;;;5054399;28;20512;-66
2023/09/09 01:43:31;;;;;;;5.18;1.40;;;;;;;;;;5055003;28;20044;-66
2023/09/09 01:45:57;;;;;;;5.55;1.60;;;;;;;;;;5055406;28;20039;-66
2023/09/09 01:48:32;;;;;;;3.47;1.48;;;;;;;;;;5022664;28;20040;-66
2023/09/09 01:51:00;;;;;;;5.38;1.55;;;;;;;;;;5094803;28;20044;-66
2023/09/09 01:53:26;;;;;;;4.38;1.38;;;;;;;;;;5057923;28;20028;-66
2023/09/09 01:55:52;;;;;;;2.97;1.40;;;;;;;;;;5074381;28;20063;-66
2023/09/09 01:58:17;;;;;;;3.75;1.30;;;;;;;;;;5074456;28;20184;-66
2023/09/09 02:00:43;;;;;;;4.57;1.38;;;;;;;;;;5091215;28;20142;-66
2023/09/09 02:03:09;;;;;;;7.70;1.92;;;;;;;;;;5074767;28;20036;-66
2023/09/09 02:05:35;;;;;;;5.22;1.52;;;;;;;;;;5091357;28;20043;-66
2023/09/09 02:08:01;;;;;;;6.15;1.55;;;;;;;;;;5091149;28;20454;-66
2023/09/09 02:10:27;;;;;;;3.50;1.40;;;;;;;;;;5090766;28;20090;-66
2023/09/09 02:12:52;;;;;;;4.32;1.63;;;;;;;;;;5057685;28;20058;-67
2023/09/09 02:15:18;;;;;;;6.68;1.60;;;;;;;;;;5091182;28;20493;-66
2023/09/09 02:17:46;;;;;;;4.85;1.45;;;;;;;;;;5074216;28;20028;-66
2023/09/09 02:20:11;;;;;;;2.78;1.35;;;;;;;;;;5090597;28;20055;-66
2023/09/09 02:22:37;;;;;;;3.17;1.30;;;;;;;;;;5074060;28;20569;-66
2023/09/09 02:25:03;;;;;;;7.80;1.50;;;;;;;;;;5091416;28;20355;-66
2023/09/09 02:27:29;;;;;;;4.88;1.23;;;;;;;;;;5075086;28;20032;-67
2023/09/09 02:29:56;;;;;;;3.75;1.33;;;;;;;;;;5074527;28;20485;-65
2023/09/09 02:32:22;;;;;;;2.42;1.33;;;;;;;;;;5074094;28;20123;-66
2023/09/09 02:34:48;;;;;;;3.15;1.52;;;;;;;;;;5091370;28;20445;-67
2023/09/09 02:37:18;;;;;;;6.15;1.25;;;;;;;;;;5057376;28;20028;-65
2023/09/09 02:39:48;;;;;;;2.92;1.20;;;;;;;;;;5074131;28;20032;-67
2023/09/09 02:42:15;;;;;;;3.13;1.25;;;;;;;;;;5074014;28;20043;-66
2023/09/09 02:44:41;;;;;;;1.88;1.30;;;;;;;;;;5073966;28;20032;-66
2023/09/09 02:47:08;;;;;;;3.65;1.20;;;;;;;;;;5076580;28;20039;-67
2023/09/09 02:49:37;;;;;;;3.10;1.60;;;;;;;;;;5080073;28;20203;-65
2023/09/09 02:52:03;;;;;;;2.35;1.27;;;;;;;;;;5062747;28;20028;-66
2023/09/09 02:54:29;;;;;;;4.63;1.40;;;;;;;;;;5077514;28;20040;-66
2023/09/09 02:56:56;;;;;;;2.58;1.45;;;;;;;;;;5077924;28;20110;-66
2023/09/09 02:59:22;;;;;;;2.95;1.42;;;;;;;;;;5094485;28;20043;-66
2023/09/09 03:01:48;;;;;;;7.43;1.58;;;;;;;;;;5077606;28;20032;-66
2023/09/09 03:04:14;;;;;;;4.15;1.80;;;;;;;;;;5077836;28;20131;-66
2023/09/09 03:06:39;;;;;;;2.03;1.30;;;;;;;;;;5111545;28;20487;-66
2023/09/09 03:09:06;;;;;;;5.40;1.50;;;;;;;;;;5060934;28;20446;-65
2023/09/09 03:11:32;;;;;;;5.60;1.40;;;;;;;;;;5094994;28;20374;-65
2023/09/09 03:13:59;;;;;;;2.40;1.35;;;;;;;;;;5078380;28;20131;-67
2023/09/09 03:16:24;;;;;;;3.72;1.48;;;;;;;;;;5060826;28;20092;-66
2023/09/09 03:18:50;;;;;;;2.78;1.60;;;;;;;;;;5094234;28;20036;-66
2023/09/09 03:21:16;;;;;;;2.80;1.50;;;;;;;;;;5076957;28;20038;-65
2023/09/09 03:23:41;;;;;;;10.10;1.88;;;;;;;;;;5077042;28;20032;-66
2023/09/09 03:26:08;;;;;;;5.35;1.55;;;;;;;;;;5077420;28;20525;-67
2023/09/09 03:28:34;;;;;;;4.55;1.30;;;;;;;;;;5093798;28;20093;-66
2023/09/09 03:31:00;;;;;;;2.85;1.52;;;;;;;;;;5077382;28;21003;-66
2023/09/09 03:33:30;;;;;;;3.20;1.30;;;;;;;;;;5063916;28;20040;-66
2023/09/09 03:35:56;;;;;;;2.95;1.63;;;;;;;;;;5096562;28;20386;-66
2023/09/09 03:38:22;;;;;;;3.42;1.40;;;;;;;;;;5094595;28;20044;-65
2023/09/09 03:40:48;;;;;;;6.53;1.65;;;;;;;;;;5076933;28;20028;-65
2023/09/09 03:43:14;;;;;;;6.80;1.67;;;;;;;;;;5093637;28;20043;-67
2023/09/09 03:45:41;;;;;;;4.03;1.42;;;;;;;;;;5094736;28;20190;-69
2023/09/09 03:48:06;;;;;;;6.07;1.80;;;;;;;;;;5079985;28;20481;-65
2023/09/09 03:50:33;;;;;;;6.03;1.80;;;;;;;;;;5079640;28;20040;-66
2023/09/09 03:53:00;;;;;;;7.13;1.63;;;;;;;;;;5076447;28;20205;-66
2023/09/09 03:55:26;;;;;;;5.38;1.50;;;;;;;;;;5060070;28;20039;-66
2023/09/09 03:57:53;;;;;;;9.40;1.60;;;;;;;;;;5059933;28;20199;-67
2023/09/09 04:00:20;;;;;;;5.80;1.40;;;;;;;;;;5060150;28;20101;-66
2023/09/09 04:02:46;;;;;;;5.28;1.58;;;;;;;;;;5093370;28;20059;-66
2023/09/09 04:05:14;;;;;;;5.05;1.45;;;;;;;;;;5077285;28;20491;-67
2023/09/09 04:07:43;;;;;;;4.85;1.55;;;;;;;;;;5093997;28;20044;-67
2023/09/09 04:10:15;;;;;;;5.88;1.20;;;;;;;;;;5094445;28;20471;-67
2023/09/09 04:12:46;;;;;;;6.30;1.77;;;;;;;;;;5060314;28;20043;-67
2023/09/09 04:15:13;;;;;;;3.13;1.60;;;;;;;;;;5093250;28;20123;-71
2023/09/09 04:17:40;;;;;;;2.08;1.30;;;;;;;;;;5093029;28;20126;-66
2023/09/09 04:20:07;;;;;;;5.20;1.80;;;;;;;;;;5075943;28;20516;-66
2023/09/09 04:22:32;;;;;;;3.85;1.40;;;;;;;;;;5075855;28;20032;-67
2023/09/09 04:24:58;;;;;;;3.22;1.48;;;;;;;;;;5075681;28;20043;-66
2023/09/09 04:27:25;;;;;;;4.15;1.65;;;;;;;;;;5076078;28;20477;-66
2023/09/09 04:29:51;;;;;;;2.40;1.30;;;;;;;;;;5092682;28;20082;-67
2023/09/09 04:32:16;;;;;;;3.53;1.40;;;;;;;;;;5076551;28;20060;-67
2023/09/09 04:34:42;;;;;;;1.88;1.10;;;;;;;;;;5094038;28;20040;-67
2023/09/09 04:37:08;;;;;;;3.97;1.30;;;;;;;;;;5059333;28;20470;-67
2023/09/09 04:39:34;;;;;;;2.90;1.52;;;;;;;;;;5109423;28;20036;-67
2023/09/09 04:42:00;;;;;;;4.65;1.40;;;;;;;;;;5093241;28;20043;-67
2023/09/09 04:44:25;;;;;;;9.70;2.90;;;;;;;;;;5093116;28;20036;-66
2023/09/09 04:46:52;;;;;;;3.90;1.60;;;;;;;;;;5092603;28;20035;-67
2023/09/09 04:49:17;;;;;;;1.95;1.10;;;;;;;;;;5092666;28;20032;-65
2023/09/09 04:51:44;;;;;;;4.68;1.27;;;;;;;;;;5059348;28;20028;-65
2023/09/09 04:54:10;;;;;;;7.10;1.33;;;;;;;;;;5092362;28;20047;-66
2023/09/09 04:56:36;;;;;;;2.47;1.17;;;;;;;;;;5075496;28;20115;-66
2023/09/09 04:59:01;;;;;;;1.80;1.08;;;;;;;;;;5075229;28;20230;-66
2023/09/09 05:01:27;;;;;;;4.47;1.30;;;;;;;;;;5075335;28;20070;-66
2023/09/09 05:03:53;;;;;;;6.18;1.30;;;;;;;;;;5075291;28;20516;-66
2023/09/09 05:06:19;;;;;;;4.38;1.08;;;;;;;;;;5075268;28;20040;-66
2023/09/09 05:08:45;;;;;;;1.73;1.20;;;;;;;;;;5076640;28;20047;-67
2023/09/09 05:11:11;;;;;;;3.05;1.10;;;;;;;;;;5091366;28;20097;-66
2023/09/09 05:13:37;;;;;;;5.47;1.10;;;;;;;;;;5075479;28;20102;-66
2023/09/09 05:16:02;;;;;;;3.83;1.38;;;;;;;;;;5059079;28;20093;-66
2023/09/09 05:18:29;;;;;;;3.33;1.00;;;;;;;;;;5092511;28;20043;-66
2023/09/09 05:20:55;;;;;;;1.88;1.08;;;;;;;;;;5075730;28;20024;-66
2023/09/09 05:23:20;;;;;;;2.80;1.10;;;;;;;;;;5076026;28;20039;-66
2023/09/09 05:25:47;;;;;;;1.77;0.70;;;;;;;;;;5075367;28;20040;-69
2023/09/09 05:28:13;;;;;;;2.55;0.75;;;;;;;;;;5075417;28;20044;-66
2023/09/09 05:30:40;;;;;;;1.33;0.77;;;;;;;;;;5074983;28;20063;-67
2023/09/09 05:33:06;;;;;;;6.25;1.08;;;;;;;;;;5055776;28;20130;-65
2023/09/09 05:35:32;;;;;;;1.23;0.77;;;;;;;;;;5058463;28;20149;-66
2023/09/09 05:37:57;;;;;;;2.08;1.13;;;;;;;;;;5074740;28;20036;-66
2023/09/09 05:40:23;;;;;;;1.88;0.82;;;;;;;;;;5091628;28;20039;-67
2023/09/09 05:42:49;;;;;;;2.85;0.90;;;;;;;;;;5057956;28;20382;-69
2023/09/09 05:45:15;;;;;;;2.30;0.90;;;;;;;;;;5058438;28;20058;-71
2023/09/09 05:47:45;;;;;;;1.95;0.90;;;;;;;;;;5093022;28;20040;-66
2023/09/09 05:50:12;;;;;;;4.20;1.05;;;;;;;;;;5058470;28;20040;-66
2023/09/09 05:52:38;;;;;;;2.95;0.90;;;;;;;;;;5091737;28;20035;-67
2023/09/09 05:55:05;;;;;;;2.65;1.00;;;;;;;;;;5057958;28;20074;-66
2023/09/09 05:57:34;;;;;;;3.72;1.20;;;;;;;;;;5075434;28;20043;-67
2023/09/09 06:00:00;;;;;;;1.90;0.90;;;;;;;;;;5091757;28;20089;-67
2023/09/09 06:02:26;;;;;;;6.65;1.20;;;;;;;;;;5074498;28;20082;-69
2023/09/09 06:04:52;;;;;;;3.63;2.03;;;;;;;;;;5057559;28;20047;-68
2023/09/09 06:07:18;;;;;;;8.60;3.20;;;;;;;;;;5092531;28;20038;-67
2023/09/09 06:09:44;;;;;;;4.45;1.67;;;;;;;;;;5092067;28;20058;-67
2023/09/09 06:12:10;;;;;;;7.70;1.50;;;;;;;;;;5091360;28;20127;-68
2023/09/09 06:14:35;;;;;;;3.25;1.40;;;;;;;;;;5091322;28;20043;-67
2023/09/09 06:17:02;;;;;;;2.53;1.00;;;;;;;;;;5092064;28;20035;-69
2023/09/09 06:19:28;;;;;;;3.25;0.65;;;;;;;;;;5095207;28;20051;-68
2023/09/09 06:21:54;;;;;;;7.65;0.90;;;;;;;;;;5077224;28;20466;-66
2023/09/09 06:24:20;;;;;;;2.25;1.00;;;;;;;;;;5092386;28;20050;-66
2023/09/09 06:26:47;;;;;;;4.00;1.40;;;;;;;;;;5058357;28;20036;-67
2023/09/09 06:29:12;;;;;;;2.40;0.90;;;;;;;;;;5074669;28;20178;-67
2023/09/09 06:31:39;;;;;;;3.03;0.93;;;;;;;;;;5074367;28;20370;-67
2023/09/09 06:34:05;;;;;;;7.35;1.23;;;;;;;;;;5074092;28;20097;-68
2023/09/09 06:36:30;;;;;;;3.17;1.45;;;;;;;;;;5092872;28;20038;-66
2023/09/09 06:38:56;;;;;;;4.35;0.70;;;;;;;;;;5076056;28;20119;-66
2023/09/09 06:41:22;;;;;;;1.33;0.88;;;;;;;;;;5071346;28;20082;-67
2023/09/09 06:43:48;;;;;;;2.53;1.40;;;;;;;;;;5057737;28;20089;-67
2023/09/09 06:46:15;;;;;;;7.00;1.73;;;;;;;;;;5073783;28;20818;-68
2023/09/09 06:48:42;;;;;;;2.55;1.00;;;;;;;;;;5073548;28;20028;-67
2023/09/09 06:51:08;;;;;;;2.03;1.10;;;;;;;;;;5073517;28;20525;-66
2023/09/09 06:53:34;;;;;;;2.45;0.80;;;;;;;;;;5090692;28;20028;-66
2023/09/09 06:55:59;;;;;;;1.17;0.70;;;;;;;;;;5073859;28;20054;-67
2023/09/09 06:58:25;;;;;;;3.55;1.10;;;;;;;;;;5051444;28;20123;-68
2023/09/09 07:00:51;;;;;;;4.38;1.02;;;;;;;;;;5073459;28;20032;-68
2023/09/09 07:03:20;;;;;;;2.17;1.00;;;;;;;;;;5091605;28;20032;-67
2023/09/09 07:05:46;;;;;;;6.15;0.75;;;;;;;;;;5087630;28;20034;-67
2023/09/09 07:08:12;;;;;;;0.90;0.80;;;;;;;;;;5107083;28;20040;-68
2023/09/09 07:10:38;;;;;;;1.48;0.75;;;;;;;;;;5088973;28;20380;-69
2023/09/09 07:13:03;;;;;;;2.13;0.90;;;;;;;;;;5056390;28;20035;-68
2023/09/09 07:15:29;;;;;;;1.58;0.80;;;;;;;;;;5090041;28;20090;-67
2023/09/09 07:17:55;;;;;;;2.72;0.95;;;;;;;;;;5090020;28;20032;-68
2023/09/09 07:20:22;;;;;;;1.23;0.98;;;;;;;;;;5056515;28;20081;-68
2023/09/09 07:22:47;;;;;;;1.27;0.90;;;;;;;;;;5088069;28;20032;-68
2023/09/09 07:25:13;;;;;;;1.85;0.85;;;;;;;;;;5089964;28;20036;-69
2023/09/09 07:27:39;;;;;;;1.38;0.93;;;;;;;;;;5090782;28;20035;-68
2023/09/09 07:30:05;;;;;;;0.77;0.70;;;;;;;;;;5073285;28;20166;-69
2023/09/09 07:32:32;;;;;;;1.00;0.80;;;;;;;;;;5089686;28;20024;-70
2023/09/09 07:35:01;;;;;;;1.73;1.27;;;;;;;;;;5094518;28;20135;-68
2023/09/09 07:37:29;;;;;;;2.08;0.60;;;;;;;;;;5093306;28;20031;-68
2023/09/09 07:39:56;;;;;;;4.25;1.00;;;;;;;;;;5073874;28;20057;-69
2023/09/09 07:42:21;;;;;;;0.65;0.55;;;;;;;;;;5059043;28;20024;-69
2023/09/09 07:44:47;;;;;;;1.35;0.80;;;;;;;;;;5093626;28;20058;-69
2023/09/09 07:47:12;;;;;;;2.38;0.70;;;;;;;;;;5091692;28;20084;-68
2023/09/09 07:49:38;;;;;;;0.93;0.80;;;;;;;;;;5092094;28;20066;-67
2023/09/09 07:52:04;;;;;;;3.15;1.02;;;;;;;;;;5093076;28;20051;-67
2023/09/09 07:54:30;;;;;;;5.15;1.40;;;;;;;;;;5092232;28;20492;-67
2023/09/09 07:56:56;;;;;;;3.08;1.20;;;;;;;;;;5092583;28;20040;-66
2023/09/09 07:59:22;;;;;;;1.95;1.00;;;;;;;;;;5092657;28;20412;-67
2023/09/09 08:01:48;;;;;;;3.20;1.02;;;;;;;;;;5092531;28;20047;-66
2023/09/09 08:04:13;;;;;;;2.47;1.10;;;;;;;;;;5092624;28;20040;-70
2023/09/09 08:06:39;;;;;;;5.38;1.00;;;;;;;;;;5075418;28;20069;-68
2023/09/09 08:09:05;;;;;;;4.88;1.25;;;;;;;;;;5091751;28;20079;-67
2023/09/09 08:11:30;;;;;;;7.55;1.48;;;;;;;;;;5073504;28;20078;-69
2023/09/09 08:13:56;;;;;;;3.95;1.00;;;;;;;;;;5090842;28;20071;-69
2023/09/09 08:16:22;;;;;;;2.03;1.10;;;;;;;;;;5093465;28;20123;-68
2023/09/09 08:18:48;;;;;;;2.72;0.98;;;;;;;;;;5092096;28;20044;-66
2023/09/09 08:21:14;;;;;;;1.92;0.85;;;;;;;;;;5091740;28;20388;-69
2023/09/09 08:23:40;;;;;;;2.45;0.90;;;;;;;;;;5091780;28;20082;-68
2023/09/09 08:26:05;;;;;;;3.78;1.00;;;;;;;;;;5075648;28;20047;-68
2023/09/09 08:28:31;;;;;;;5.25;1.13;;;;;;;;;;5059194;28;20363;-66
2023/09/09 08:31:00;;;;;;;1.88;0.95;;;;;;;;;;5092162;28;20135;-68
2023/09/09 08:33:26;;;;;;;6.93;1.15;;;;;;;;;;5091264;28;20032;-69
2023/09/09 08:35:59;;;;;;;1.60;1.00;;;;;;;;;;5055608;28;20032;-68
2023/09/09 08:38:25;;;;;;;5.97;0.80;;;;;;;;;;5074330;28;20965;-69
2023/09/09 08:41:10;;;;;;;5.55;1.58;;;;;;;;;;5056231;28;20053;-69
2023/09/09 08:43:48;;;;;;;5.03;1.10;;;;;;;;;;5106680;28;20040;-69
2023/09/09 08:46:19;;;;;;;1.73;1.10;;;;;;;;;;5090004;28;20027;-69
2023/09/09 08:48:48;;;;;;;3.13;0.90;;;;;;;;;;5090998;28;20492;-69
2023/09/09 08:51:16;;;;;;;2.38;0.93;;;;;;;;;;5057508;28;20040;-68
2023/09/09 08:53:43;;;;;;;4.03;1.10;;;;;;;;;;5056729;28;20054;-69
2023/09/09 08:56:08;;;;;;;7.38;1.35;;;;;;;;;;5074506;28;20082;-68
2023/09/09 08:58:34;;;;;;;2.90;1.20;;;;;;;;;;5057597;28;20028;-68
2023/09/09 09:01:00;;;;;;;3.72;1.30;;;;;;;;;;5075984;28;20031;-68
2023/09/09 09:03:26;;;;;;;1.85;1.33;;;;;;;;;;5090912;28;20042;-68
2023/09/09 09:05:56;;;;;;;2.90;1.30;;;;;;;;;;5074709;28;20062;-68
2023/09/09 09:08:22;;;;;;;2.88;1.88;;;;;;;;;;5074632;28;20060;-68
2023/09/09 09:10:48;;;;;;;6.07;1.95;;;;;;;;;;5074263;28;20102;-68
2023/09/09 09:13:15;;;;;;;7.78;1.67;;;;;;;;;;5090250;28;20513;-68
2023/09/09 09:15:41;;;;;;;7.22;1.60;;;;;;;;;;5092030;28;20429;-68
2023/09/09 09:18:07;;;;;;;4.88;1.60;;;;;;;;;;5091073;28;20032;-67
2023/09/09 09:20:33;;;;;;;8.40;1.48;;;;;;;;;;5074316;28;20039;-68
2023/09/09 09:23:10;;;;;;;3.13;1.90;;;;;;;;;;5057413;28;20028;-68
2023/09/09 09:25:44;;;;;;;5.10;1.70;;;;;;;;;;5057409;28;20115;-68
2023/09/09 09:28:11;;;;;;;3.45;1.50;;;;;;;;;;5075984;28;20492;-67
2023/09/09 09:30:36;;;;;;;7.85;1.67;;;;;;;;;;5093454;28;20147;-68
2023/09/09 09:33:03;;;;;;;6.70;1.40;;;;;;;;;;5091169;28;20127;-68
2023/09/09 09:35:29;;;;;;;6.53;1.58;;;;;;;;;;5057282;28;20039;-68
2023/09/09 09:37:59;;;;;;;2.42;1.55;;;;;;;;;;5073764;28;20032;-71
2023/09/09 09:40:29;;;;;;;5.17;1.93;;;;;;;;;;5052096;28;20443;-69
2023/09/09 09:42:55;;;;;;;4.10;2.30;;;;;;;;;;5027495;28;20290;-68
2023/09/09 09:45:28;;;;;;;4.47;2.20;;;;;;;;;;5036342;28;20400;-68
2023/09/09 09:47:58;;;;;;;4.53;1.58;;;;;;;;;;5013175;28;20491;-68
2023/09/09 09:50:28;;;;;;;5.53;2.40;;;;;;;;;;5013254;28;20494;-68
2023/09/09 09:52:58;;;;;;;6.90;2.00;;;;;;;;;;4997325;28;20049;-68
2023/09/09 09:55:24;;;;;;;6.03;3.00;;;;;;;;;;5013001;28;20045;-68
2023/09/09 09:57:52;;;;;;;5.50;1.50;;;;;;;;;;5012513;28;20033;-68
2023/09/09 10:00:18;;;;;;;3.78;2.08;;;;;;;;;;4996863;28;20041;-68
2023/09/09 10:02:46;;;;;;;4.45;1.42;;;;;;;;;;5015222;28;20156;-68
2023/09/09 10:05:13;;;;;;;4.97;1.30;;;;;;;;;;5032046;28;20045;-68
2023/09/09 10:07:45;;;;;;;5.57;1.10;;;;;;;;;;4974009;28;20046;-68
2023/09/09 10:10:15;;;;;;;8.15;1.30;;;;;;;;;;4990243;28;20062;-68
2023/09/09 10:12:47;;;;;;;3.67;1.27;;;;;;;;;;4994760;28;20049;-66
2023/09/09 10:15:14;;;;;;;3.30;1.00;;;;;;;;;;5029194;28;20041;-68
2023/09/09 10:17:43;;;;;;;8.75;1.75;;;;;;;;;;5030242;28;20132;-68
2023/09/09 10:20:11;;;;;;;3.95;1.23;;;;;;;;;;5022470;28;20045;-67
2023/09/09 10:22:40;;;;;;;2.70;1.20;;;;;;;;;;5008877;28;20586;-69
2023/09/09 10:25:07;;;;;;;5.65;1.17;;;;;;;;;;5009439;28;20038;-68
2023/09/09 10:27:34;;;;;;;5.38;1.23;;;;;;;;;;4993175;28;20042;-66
2023/09/09 10:30:00;;;;;;;4.30;1.50;;;;;;;;;;4959970;28;20104;-67
2023/09/09 10:32:27;;;;;;;5.18;1.63;;;;;;;;;;4992389;28;20046;-68
2023/09/09 10:34:54;;;;;;;3.55;1.30;;;;;;;;;;4976805;28;20049;-71
2023/09/09 10:37:20;;;;;;;5.15;1.90;;;;;;;;;;4998918;28;20043;-69
2023/09/09 10:39:46;;;;;;;7.75;1.73;;;;;;;;;;5008626;28;20038;-68
2023/09/09 10:42:14;;;;;;;3.95;1.73;;;;;;;;;;4976938;28;20421;-68
2023/09/09 10:44:39;;;;;;;8.02;1.40;;;;;;;;;;5009136;28;20503;-69
2023/09/09 10:47:08;;;;;;;2.55;1.48;;;;;;;;;;4976556;28;20030;-70
2023/09/09 10:49:34;;;;;;;3.75;1.50;;;;;;;;;;4988729;28;20041;-70
2023/09/09 10:51:59;;;;;;;3.90;1.60;;;;;;;;;;4933740;28;20051;-70
2023/09/09 10:54:26;;;;;;;5.50;1.50;;;;;;;;;;4952206;28;20114;-70
2023/09/09 10:57:01;;;;;;;5.95;1.50;;;;;;;;;;4950624;28;20526;-69
2023/09/09 10:59:28;;;;;;;3.65;1.70;;;;;;;;;;4953689;28;20262;-72
2023/09/09 11:02:10;;;;;;;5.65;1.45;;;;;;;;;;4953054;28;20050;-70
2023/09/09 11:04:41;;;;;;;3.95;1.80;;;;;;;;;;4951625;28;20043;-69
2023/09/09 11:07:08;;;;;;;5.15;2.15;;;;;;;;;;4953372;28;20162;-69
2023/09/09 11:09:36;;;;;;;6.68;1.70;;;;;;;;;;4973312;28;20164;-69
2023/09/09 11:12:12;;;;;;;3.92;1.83;;;;;;;;;;4998672;28;20060;-71
2023/09/09 11:14:40;;;;;;;4.47;2.20;;;;;;;;;;4983611;28;20030;-69
2023/09/09 11:17:09;;;;;;;5.40;1.90;;;;;;;;;;4999596;28;20055;-69
2023/09/09 11:19:36;;;;;;;6.60;1.98;;;;;;;;;;4999672;28;20463;-69
2023/09/09 11:22:02;;;;;;;3.97;1.98;;;;;;;;;;4987514;28;20472;-70
2023/09/09 11:24:31;;;;;;;6.65;2.05;;;;;;;;;;5056525;28;20034;-69
2023/09/09 11:26:57;;;;;;;5.75;1.70;;;;;;;;;;5056747;28;20036;-69
2023/09/09 11:29:23;;;;;;;5.65;2.05;;;;;;;;;;5039899;28;20103;-69
2023/09/09 11:31:49;;;;;;;3.20;2.00;;;;;;;;;;5056311;28;20040;-69
2023/09/09 11:34:16;;;;;;;5.78;2.15;;;;;;;;;;5039607;28;20032;-70
2023/09/09 11:36:47;;;;;;;5.55;2.60;;;;;;;;;;5072935;28;20040;-69
2023/09/09 11:39:19;;;;;;;6.18;2.58;;;;;;;;;;5055989;28;20139;-69
2023/09/09 11:41:44;;;;;;;5.43;2.40;;;;;;;;;;5055790;28;20459;-69
2023/09/09 11:44:11;;;;;;;10.15;2.55;;;;;;;;;;5051297;28;20136;-69
2023/09/09 11:46:40;;;;;;;6.70;2.20;;;;;;;;;;5015376;28;20041;-70
2023/09/09 11:49:06;;;;;;;7.03;3.10;;;;;;;;;;5015191;28;20045;-70
2023/09/09 11:51:33;;;;;;;5.72;3.20;;;;;;;;;;5015048;28;20083;-70
2023/09/09 11:54:02;;;;;;;5.85;2.50;;;;;;;;;;5014915;28;20057;-70
2023/09/09 11:56:28;;;;;;;4.25;2.70;;;;;;;;;;4982529;28;20052;-69
2023/09/09 11:58:53;;;;;;;5.20;2.30;;;;;;;;;;4959874;28;20509;-70
2023/09/09 12:01:20;;;;;;;6.97;4.28;;;;;;;;;;4976181;28;20042;-69
2023/09/09 12:03:49;;;;;;;4.88;2.25;;;;;;;;;;4975625;28;20398;-69
2023/09/09 12:06:16;;;;;;;;;;;;;;;;;;4960420;28;20085;-69
2023/09/09 12:08:42;;;;;;;5.80;2.50;;;;;;;;;;4959253;28;19952;-69
2023/09/09 12:11:09;;;;;;;4.15;2.28;;;;;;;;;;4943217;28;20050;-69
2023/09/09 12:13:39;;;;;;;5.47;2.55;;;;;;;;;;4958814;28;20057;-69
2023/09/09 12:16:07;;;;;;;3.72;2.58;;;;;;;;;;4959391;28;20038;-69
2023/09/09 12:18:34;;;;;;;4.50;2.45;;;;;;;;;;4959206;28;20046;-70
2023/09/09 12:21:03;;;;;;;10.57;2.58;;;;;;;;;;4959839;28;20050;-71
2023/09/09 12:23:34;;;;;;;6.38;2.63;;;;;;;;;;4976880;28;20117;-73
2023/09/09 12:25:59;;;;;;;;;;;;;;;;;;4953438;28;20047;-70
2023/09/09 12:28:25;;;;;;;7.65;2.80;;;;;;;;;;4953176;28;20320;-69
2023/09/09 12:30:58;;;;;;;7.00;2.70;;;;;;;;;;5004013;28;20541;-70
2023/09/09 12:33:28;;;;;;;4.68;2.70;;;;;;;;;;4981838;28;20124;-69
2023/09/09 12:35:55;;;;;;;4.70;2.58;;;;;;;;;;5013900;28;20037;-69
2023/09/09 12:38:22;;;;;;;6.25;2.72;;;;;;;;;;4998121;28;20045;-69
2023/09/09 12:41:03;;;;;;;8.88;2.58;;;;;;;;;;4982393;28;20540;-69
2023/09/09 12:43:30;;;;;;;8.05;2.60;;;;;;;;;;4982212;28;20041;-74
2023/09/09 12:46:12;;;;;;;6.95;3.05;;;;;;;;;;4999327;28;20462;-69
2023/09/09 12:48:54;;;;;;;9.52;3.25;;;;;;;;;;4981768;28;20036;-69
2023/09/09 12:51:21;;;;;;;7.35;3.20;;;;;;;;;;4997910;28;20061;-69
2023/09/09 12:53:49;;;;;;;6.25;3.33;;;;;;;;;;4998042;28;20169;-71
2023/09/09 12:56:15;;;;;;;8.60;2.80;;;;;;;;;;4998927;28;20474;-69
2023/09/09 12:58:41;;;;;;;8.88;2.83;;;;;;;;;;4998598;28;20053;-69
2023/09/09 13:01:08;;;;;;;8.57;2.70;;;;;;;;;;4981364;28;20041;-69
2023/09/09 13:03:33;;;;;;;6.40;3.38;;;;;;;;;;5039434;28;20185;-70
2023/09/09 13:05:59;;;;;;;8.25;2.95;;;;;;;;;;5040016;28;20158;-69
2023/09/09 13:08:25;;;;;;;7.45;2.80;;;;;;;;;;5040726;28;20042;-71
2023/09/09 13:10:51;;;;;;;6.35;2.90;;;;;;;;;;5053186;28;20060;-69
2023/09/09 13:13:17;;;;;;;5.75;2.80;;;;;;;;;;5019876;28;20101;-69
2023/09/09 13:15:43;;;;;;;4.05;2.63;;;;;;;;;;5020320;28;20356;-69
2023/09/09 13:18:11;;;;;;;6.57;2.78;;;;;;;;;;5053051;28;20060;-69
2023/09/09 13:20:37;;;;;;;9.43;3.00;;;;;;;;;;5019861;28;20079;-69
2023/09/09 13:23:03;;;;;;;7.22;3.10;;;;;;;;;;5036812;28;20070;-69
2023/09/09 13:25:29;;;;;;;6.95;2.83;;;;;;;;;;5020242;28;20076;-69
2023/09/09 13:27:55;;;;;;;12.20;3.05;;;;;;;;;;5019590;28;20024;-69
2023/09/09 13:30:22;;;;;;;7.22;3.40;;;;;;;;;;5035874;28;20044;-69
2023/09/09 13:32:47;;;;;;;8.75;3.13;;;;;;;;;;5035543;28;20066;-69
2023/09/09 13:35:13;;;;;;;6.03;3.38;;;;;;;;;;5053071;28;20151;-69
2023/09/09 13:37:41;;;;;;;12.05;3.22;;;;;;;;;;5036016;28;20573;-69
2023/09/09 13:40:08;;;;;;;8.93;3.33;;;;;;;;;;5052590;28;20110;-69
2023/09/09 13:42:34;;;;;;;6.90;4.18;;;;;;;;;;5037498;28;20504;-70
2023/09/09 13:44:59;;;;;;;4.53;3.20;;;;;;;;;;5040804;28;20060;-70
2023/09/09 13:47:27;;;;;;;4.55;3.25;;;;;;;;;;5040262;28;20040;-69
2023/09/09 13:50:00;;;;;;;5.97;3.10;;;;;;;;;;5055643;28;20040;-70
2023/09/09 13:52:25;;;;;;;5.70;3.13;;;;;;;;;;5057417;28;20040;-72
2023/09/09 13:54:51;;;;;;;5.32;2.95;;;;;;;;;;5057005;28;20032;-70
2023/09/09 13:57:18;;;;;;;5.78;3.70;;;;;;;;;;5057039;28;20028;-69
2023/09/09 13:59:44;;;;;;;5.90;3.55;;;;;;;;;;5073644;28;20123;-69
2023/09/09 14:02:11;;;;;;;6.38;3.38;;;;;;;;;;5057235;28;20028;-69
2023/09/09 14:04:37;;;;;;;7.38;3.00;;;;;;;;;;5058156;28;20074;-70
2023/09/09 14:07:03;;;;;;;7.07;3.10;;;;;;;;;;5058045;28;20071;-70
2023/09/09 14:09:30;;;;;;;9.85;3.55;;;;;;;;;;5057447;28;20063;-69
2023/09/09 14:11:57;;;;;;;8.93;3.20;;;;;;;;;;5055926;28;20070;-69
2023/09/09 14:14:23;;;;;;;7.85;3.80;;;;;;;;;;5073494;28;20470;-70
2023/09/09 14:16:55;;;;;;;7.10;4.45;;;;;;;;;;5056864;28;20119;-69
2023/09/09 14:19:22;;;;;;;7.30;4.15;;;;;;;;;;5057300;28;20047;-69
2023/09/09 14:21:48;;;;;;;7.00;3.17;;;;;;;;;;5035615;28;20044;-70
2023/09/09 14:24:13;;;;;;;7.22;3.15;;;;;;;;;;5068976;28;20079;-69
2023/09/09 14:26:41;;;;;;;7.25;3.50;;;;;;;;;;5068564;28;20058;-69
2023/09/09 14:29:06;;;;;;;7.30;3.15;;;;;;;;;;5052003;28;20063;-69
2023/09/09 14:31:33;;;;;;;5.95;2.67;;;;;;;;;;5052168;28;20116;-70
2023/09/09 14:34:00;;;;;;;7.28;2.60;;;;;;;;;;5068756;28;20470;-69
2023/09/09 14:36:26;;;;;;;7.25;2.65;;;;;;;;;;5052367;28;20053;-69
2023/09/09 14:38:53;;;;;;;5.70;2.65;;;;;;;;;;5068369;28;20048;-69
2023/09/09 14:41:19;;;;;;;3.13;2.80;;;;;;;;;;5068733;28;20383;-69